Time;durP1;ratioP1;P1;durP2;ratioP2;P2;SDS_P1;SDS_P2;PMS_P1;PMS_P2;Temp;Humidity;BMP_temperature;BMP_pressure;BME280_temperature;BME280_humidity;BME280_pressure;Samples;Min_cycle;Max_cycle;Signal;HPM_P1;HPM_P2
2022/03/11 00:01:56;;;;;;;12.48;5.78;;;;;;;;;;5089431;28;20079;-64
2022/03/11 00:04:38;;;;;;;13.20;5.88;;;;;;;;;;5087672;28;20067;-64
2022/03/11 00:07:06;;;;;;;14.68;5.18;;;;;;;;;;5089523;28;20442;-64
2022/03/11 00:09:35;;;;;;;14.63;5.40;;;;;;;;;;5086471;28;20480;-64
2022/03/11 00:12:04;;;;;;;12.73;5.63;;;;;;;;;;5085405;28;20036;-65
2022/03/11 00:14:32;;;;;;;10.30;4.70;;;;;;;;;;5089065;28;20127;-65
2022/03/11 00:17:03;;;;;;;11.70;5.10;;;;;;;;;;5091009;28;20106;-64
2022/03/11 00:19:31;;;;;;;10.63;4.30;;;;;;;;;;5085756;28;20138;-65
2022/03/11 00:21:59;;;;;;;10.88;4.45;;;;;;;;;;5095251;28;20071;-65
2022/03/11 00:24:28;;;;;;;11.75;4.80;;;;;;;;;;5090622;28;20048;-64
2022/03/11 00:26:56;;;;;;;10.50;4.03;;;;;;;;;;5085549;28;20480;-64
2022/03/11 00:29:24;;;;;;;11.30;4.90;;;;;;;;;;5090813;28;20147;-64
2022/03/11 00:31:52;;;;;;;10.07;4.00;;;;;;;;;;5091807;28;20067;-64
2022/03/11 00:34:22;;;;;;;10.82;4.05;;;;;;;;;;5085432;28;20412;-64
2022/03/11 00:36:51;;;;;;;8.68;3.88;;;;;;;;;;5090594;28;20552;-64
2022/03/11 00:39:19;;;;;;;10.40;3.72;;;;;;;;;;5090051;28;20461;-64
2022/03/11 00:41:47;;;;;;;11.45;4.18;;;;;;;;;;5080618;28;20052;-64
2022/03/11 00:44:15;;;;;;;6.60;3.63;;;;;;;;;;5084740;28;20076;-64
2022/03/11 00:46:44;;;;;;;9.10;3.88;;;;;;;;;;5089400;28;20071;-64
2022/03/11 00:49:12;;;;;;;10.27;3.42;;;;;;;;;;5083206;28;20040;-64
2022/03/11 00:51:42;;;;;;;6.75;3.50;;;;;;;;;;5080504;28;20113;-64
2022/03/11 00:54:12;;;;;;;9.35;3.60;;;;;;;;;;5084307;28;20074;-64
2022/03/11 00:56:40;;;;;;;9.15;4.03;;;;;;;;;;5088636;28;20123;-64
2022/03/11 00:59:09;;;;;;;8.18;2.80;;;;;;;;;;5080572;28;20136;-64
2022/03/11 01:01:37;;;;;;;6.07;3.40;;;;;;;;;;5088922;28;20076;-64
2022/03/11 01:04:06;;;;;;;6.80;2.92;;;;;;;;;;5085478;28;20064;-64
2022/03/11 01:06:34;;;;;;;8.20;3.03;;;;;;;;;;5084815;28;20139;-64
2022/03/11 01:09:04;;;;;;;6.50;3.20;;;;;;;;;;5082523;28;20342;-65
2022/03/11 01:11:32;;;;;;;8.93;3.58;;;;;;;;;;5083326;28;20040;-64
2022/03/11 01:14:01;;;;;;;6.88;3.08;;;;;;;;;;5083207;28;20123;-64
2022/03/11 01:16:29;;;;;;;7.13;3.35;;;;;;;;;;5088281;28;20082;-64
2022/03/11 01:18:58;;;;;;;8.35;3.13;;;;;;;;;;5079071;28;20101;-64
2022/03/11 01:21:26;;;;;;;5.43;2.75;;;;;;;;;;5080153;28;20072;-64
2022/03/11 01:23:55;;;;;;;8.25;2.55;;;;;;;;;;5079347;28;20048;-64
2022/03/11 01:26:25;;;;;;;6.35;3.20;;;;;;;;;;5080792;28;20501;-64
2022/03/11 01:28:53;;;;;;;6.68;3.03;;;;;;;;;;5086444;28;20051;-65
2022/03/11 01:31:21;;;;;;;6.50;2.72;;;;;;;;;;5076956;28;20131;-64
2022/03/11 01:33:50;;;;;;;7.70;2.45;;;;;;;;;;5077517;28;20056;-64
2022/03/11 01:36:18;;;;;;;5.25;2.95;;;;;;;;;;5076121;28;21305;-64
2022/03/11 01:38:46;;;;;;;8.05;3.28;;;;;;;;;;5083392;28;20449;-64
2022/03/11 01:41:15;;;;;;;6.32;3.10;;;;;;;;;;5086362;28;20370;-64
2022/03/11 01:43:56;;;;;;;9.57;3.08;;;;;;;;;;5086584;28;20636;-64
2022/03/11 01:46:24;;;;;;;7.75;3.35;;;;;;;;;;5080100;28;20072;-64
2022/03/11 01:48:52;;;;;;;6.60;3.00;;;;;;;;;;5079756;28;20105;-65
2022/03/11 01:51:21;;;;;;;7.50;3.03;;;;;;;;;;5079999;28;20165;-64
2022/03/11 01:53:50;;;;;;;7.55;3.15;;;;;;;;;;5088052;28;20238;-64
2022/03/11 01:56:18;;;;;;;7.78;3.30;;;;;;;;;;5088666;28;20083;-64
2022/03/11 01:58:49;;;;;;;7.53;3.20;;;;;;;;;;5077055;28;20115;-65
2022/03/11 02:01:19;;;;;;;8.55;2.90;;;;;;;;;;5082168;28;20143;-64
2022/03/11 02:03:48;;;;;;;7.22;3.00;;;;;;;;;;5082833;28;20087;-65
2022/03/11 02:06:16;;;;;;;6.45;3.10;;;;;;;;;;5087223;28;20040;-65
2022/03/11 02:08:45;;;;;;;8.10;2.92;;;;;;;;;;5078585;28;20134;-66
2022/03/11 02:11:13;;;;;;;7.30;2.80;;;;;;;;;;5085756;28;20112;-65
2022/03/11 02:13:45;;;;;;;5.50;3.13;;;;;;;;;;5073895;28;20142;-65
2022/03/11 02:16:14;;;;;;;6.80;3.53;;;;;;;;;;5088268;28;20123;-65
2022/03/11 02:18:44;;;;;;;5.50;2.60;;;;;;;;;;5080850;28;20048;-66
2022/03/11 02:21:13;;;;;;;4.93;2.88;;;;;;;;;;5087731;28;20078;-65
2022/03/11 02:23:45;;;;;;;4.75;2.42;;;;;;;;;;5077109;28;20750;-65
2022/03/11 02:26:13;;;;;;;6.40;2.75;;;;;;;;;;5087750;22;20482;-78
2022/03/11 02:28:42;;;;;;;6.20;2.70;;;;;;;;;;5069553;28;20476;-78
2022/03/11 02:31:11;;;;;;;15.25;3.63;;;;;;;;;;5066478;22;20079;-88
2022/03/11 02:33:39;;;;;;;7.60;3.10;;;;;;;;;;5046659;28;20048;-88
2022/03/11 02:36:09;;;;;;;4.82;2.53;;;;;;;;;;5078844;22;20080;-78
2022/03/11 02:38:38;;;;;;;10.13;3.35;;;;;;;;;;5080598;28;20044;-78
2022/03/11 02:41:08;;;;;;;5.20;3.15;;;;;;;;;;5089630;28;20088;-79
2022/03/11 02:43:36;;;;;;;7.57;3.17;;;;;;;;;;5080563;28;20131;-78
2022/03/11 02:46:07;;;;;;;8.50;2.95;;;;;;;;;;5088406;28;20124;-78
2022/03/11 02:48:36;;;;;;;11.00;2.92;;;;;;;;;;5084084;28;20047;-79
2022/03/11 02:51:06;;;;;;;6.38;3.80;;;;;;;;;;5087964;28;20474;-79
2022/03/11 02:53:37;;;;;;;6.55;2.72;;;;;;;;;;5087314;28;20090;-79
2022/03/11 02:56:10;;;;;;;7.07;3.13;;;;;;;;;;5087263;28;20044;-79
2022/03/11 02:58:39;;;;;;;4.53;2.67;;;;;;;;;;5076690;28;20519;-81
2022/03/11 03:01:08;;;;;;;5.88;2.88;;;;;;;;;;5078988;28;20051;-79
2022/03/11 03:03:36;;;;;;;7.65;3.78;;;;;;;;;;5079763;28;20048;-78
2022/03/11 03:06:07;;;;;;;7.53;4.03;;;;;;;;;;5081955;28;20044;-79
2022/03/11 03:08:36;;;;;;;11.57;4.57;;;;;;;;;;5080148;28;20132;-78
2022/03/11 03:11:07;;;;;;;7.32;3.28;;;;;;;;;;5083687;28;20095;-79
2022/03/11 03:13:36;;;;;;;7.75;3.70;;;;;;;;;;5085485;28;20078;-78
2022/03/11 03:16:07;;;;;;;11.63;4.15;;;;;;;;;;5083302;28;20052;-79
2022/03/11 03:18:36;;;;;;;8.13;3.67;;;;;;;;;;5088454;28;20110;-78
2022/03/11 03:21:07;;;;;;;8.25;4.00;;;;;;;;;;5080142;28;20143;-78
2022/03/11 03:23:35;;;;;;;8.18;3.50;;;;;;;;;;5081662;28;20402;-79
2022/03/11 03:26:06;;;;;;;9.27;3.47;;;;;;;;;;5073115;28;20563;-80
2022/03/11 03:28:36;;;;;;;7.53;3.53;;;;;;;;;;5086429;28;20067;-79
2022/03/11 03:31:07;;;;;;;12.82;4.13;;;;;;;;;;5083898;28;20091;-79
2022/03/11 03:33:36;;;;;;;8.45;3.35;;;;;;;;;;5083788;28;20044;-78
2022/03/11 03:36:06;;;;;;;12.77;3.45;;;;;;;;;;5063208;28;20084;-79
2022/03/11 03:38:34;;;;;;;9.18;3.83;;;;;;;;;;5060276;28;20041;-79
2022/03/11 03:41:05;;;;;;;10.70;4.28;;;;;;;;;;5066537;28;20164;-78
2022/03/11 03:43:33;;;;;;;10.68;3.65;;;;;;;;;;5063529;28;20131;-79
2022/03/11 03:46:07;;;;;;;9.50;3.78;;;;;;;;;;5057152;28;20539;-78
2022/03/11 03:48:35;;;;;;;9.07;3.70;;;;;;;;;;5055418;28;20049;-79
2022/03/11 03:51:06;;;;;;;7.55;3.38;;;;;;;;;;5067735;28;20068;-79
2022/03/11 03:53:34;;;;;;;7.68;2.97;;;;;;;;;;5072404;28;20494;-79
2022/03/11 03:56:05;;;;;;;9.45;3.65;;;;;;;;;;5051395;28;20243;-79
2022/03/11 03:58:33;;;;;;;10.25;3.88;;;;;;;;;;5058575;28;21342;-79
2022/03/11 04:01:05;;;;;;;12.77;3.60;;;;;;;;;;5061514;28;20566;-79
2022/03/11 04:03:35;;;;;;;7.90;3.40;;;;;;;;;;5082971;28;20056;-79
2022/03/11 04:06:06;;;;;;;9.38;3.95;;;;;;;;;;5066162;28;20097;-79
2022/03/11 04:08:34;;;;;;;11.63;3.40;;;;;;;;;;5075486;28;20787;-79
2022/03/11 04:11:05;;;;;;;6.85;3.45;;;;;;;;;;5060937;28;20420;-79
2022/03/11 04:13:33;;;;;;;9.75;4.13;;;;;;;;;;5064545;28;20491;-80
2022/03/11 04:16:01;;;;;;;8.95;4.03;;;;;;;;;;5056685;28;20124;-79
2022/03/11 04:18:34;;;;;;;6.97;3.10;;;;;;;;;;5068728;28;20048;-79
2022/03/11 04:21:04;;;;;;;8.35;3.78;;;;;;;;;;5060907;28;20095;-79
2022/03/11 04:23:33;;;;;;;10.77;3.67;;;;;;;;;;5063523;28;20116;-79
2022/03/11 04:26:01;;;;;;;7.78;4.05;;;;;;;;;;5065002;28;20581;-79
2022/03/11 04:28:32;;;;;;;9.57;3.88;;;;;;;;;;5054613;28;20091;-79
2022/03/11 04:31:00;;;;;;;10.55;3.78;;;;;;;;;;5056682;28;20072;-79
2022/03/11 04:33:29;;;;;;;8.63;4.30;;;;;;;;;;5063283;28;20407;-79
2022/03/11 04:35:59;;;;;;;9.68;4.20;;;;;;;;;;5056583;28;20147;-79
2022/03/11 04:38:27;;;;;;;9.38;3.75;;;;;;;;;;5055817;28;20102;-79
2022/03/11 04:40:55;;;;;;;10.82;4.57;;;;;;;;;;5064363;28;20143;-79
2022/03/11 04:43:24;;;;;;;10.98;3.92;;;;;;;;;;5058209;28;20132;-79
2022/03/11 04:45:52;;;;;;;8.27;3.78;;;;;;;;;;5064098;28;20415;-79
2022/03/11 04:48:20;;;;;;;13.80;4.85;;;;;;;;;;5069834;28;20040;-79
2022/03/11 04:50:49;;;;;;;9.30;4.38;;;;;;;;;;5059238;28;20159;-79
2022/03/11 04:53:18;;;;;;;10.35;4.05;;;;;;;;;;5055271;28;20084;-79
2022/03/11 04:55:47;;;;;;;14.15;4.32;;;;;;;;;;5059034;28;20056;-79
2022/03/11 04:58:15;;;;;;;10.52;4.70;;;;;;;;;;5055254;28;20573;-80
2022/03/11 05:00:43;;;;;;;10.65;4.18;;;;;;;;;;5064787;28;20052;-79
2022/03/11 05:03:12;;;;;;;9.13;4.13;;;;;;;;;;5056392;28;20059;-79
2022/03/11 05:05:40;;;;;;;12.35;4.40;;;;;;;;;;5064060;28;20145;-79
2022/03/11 05:08:08;;;;;;;9.18;4.30;;;;;;;;;;5066684;28;20130;-79
2022/03/11 05:10:38;;;;;;;10.30;4.38;;;;;;;;;;5064119;28;20142;-79
2022/03/11 05:13:09;;;;;;;13.20;4.85;;;;;;;;;;5061997;28;20055;-79
2022/03/11 05:15:38;;;;;;;8.80;4.28;;;;;;;;;;5069911;28;20460;-80
2022/03/11 05:18:08;;;;;;;10.95;4.70;;;;;;;;;;5070893;28;20044;-79
2022/03/11 05:20:36;;;;;;;13.65;4.63;;;;;;;;;;5062283;28;20057;-78
2022/03/11 05:23:04;;;;;;;11.07;4.70;;;;;;;;;;5066215;28;20056;-79
2022/03/11 05:25:33;;;;;;;14.40;4.55;;;;;;;;;;5079706;28;20045;-78
2022/03/11 05:28:02;;;;;;;14.32;4.68;;;;;;;;;;5064723;28;20083;-79
2022/03/11 05:30:31;;;;;;;13.30;4.30;;;;;;;;;;5062113;28;20077;-78
2022/03/11 05:32:59;;;;;;;13.43;4.57;;;;;;;;;;5065476;28;20124;-79
2022/03/11 05:35:27;;;;;;;17.55;5.88;;;;;;;;;;5071389;28;20084;-79
2022/03/11 05:37:56;;;;;;;18.55;5.95;;;;;;;;;;5062789;28;20088;-79
2022/03/11 05:40:24;;;;;;;15.80;5.05;;;;;;;;;;5059758;28;20095;-79
2022/03/11 05:42:52;;;;;;;17.58;5.00;;;;;;;;;;5067983;28;20135;-78
2022/03/11 05:45:22;;;;;;;14.65;4.75;;;;;;;;;;5070099;28;20148;-78
2022/03/11 05:47:50;;;;;;;13.88;4.68;;;;;;;;;;5069204;28;20070;-79
2022/03/11 05:50:19;;;;;;;11.98;5.05;;;;;;;;;;5055534;28;20087;-78
2022/03/11 05:52:49;;;;;;;15.35;5.28;;;;;;;;;;5063360;28;20115;-78
2022/03/11 05:55:18;;;;;;;14.70;4.72;;;;;;;;;;5063079;28;20553;-78
2022/03/11 05:57:46;;;;;;;19.63;5.18;;;;;;;;;;5060597;28;20095;-77
2022/03/11 06:00:15;;;;;;;14.48;4.85;;;;;;;;;;5063090;28;20044;-77
2022/03/11 06:02:45;;;;;;;13.20;5.05;;;;;;;;;;5074490;28;20075;-77
2022/03/11 06:05:13;;;;;;;16.30;5.22;;;;;;;;;;5066002;28;20047;-78
2022/03/11 06:07:41;;;;;;;13.02;4.10;;;;;;;;;;5057739;28;20055;-79
2022/03/11 06:10:11;;;;;;;12.85;4.65;;;;;;;;;;5050156;28;20666;-76
2022/03/11 06:12:39;;;;;;;16.10;4.50;;;;;;;;;;5062930;28;20093;-76
2022/03/11 06:15:08;;;;;;;14.85;5.20;;;;;;;;;;5065752;28;20567;-77
2022/03/11 06:17:36;;;;;;;10.68;4.20;;;;;;;;;;5062610;28;20056;-77
2022/03/11 06:20:08;;;;;;;12.32;5.07;;;;;;;;;;5057970;28;20041;-77
2022/03/11 06:22:37;;;;;;;13.85;5.18;;;;;;;;;;5062698;28;20133;-77
2022/03/11 06:25:06;;;;;;;15.48;5.25;;;;;;;;;;5059260;28;20073;-78
2022/03/11 06:27:34;;;;;;;23.05;6.18;;;;;;;;;;5056308;28;20258;-75
2022/03/11 06:30:02;;;;;;;14.65;5.40;;;;;;;;;;5063171;28;20063;-76
2022/03/11 06:32:30;;;;;;;9.63;3.80;;;;;;;;;;5058270;28;20488;-76
2022/03/11 06:34:59;;;;;;;14.63;4.60;;;;;;;;;;5049849;28;20052;-75
2022/03/11 06:37:31;;;;;;;11.73;4.60;;;;;;;;;;5053515;28;20057;-76
2022/03/11 06:39:59;;;;;;;12.13;4.68;;;;;;;;;;5055511;28;20056;-76
2022/03/11 06:42:34;;;;;;;15.38;5.15;;;;;;;;;;5050093;28;20044;-77
2022/03/11 06:45:03;;;;;;;14.70;5.70;;;;;;;;;;5052578;28;20068;-76
2022/03/11 06:47:31;;;;;;;12.07;4.32;;;;;;;;;;5067233;28;20084;-76
2022/03/11 06:49:59;;;;;;;18.13;5.22;;;;;;;;;;5066745;28;20326;-76
2022/03/11 06:52:29;;;;;;;9.43;4.57;;;;;;;;;;5059259;28;20126;-77
2022/03/11 06:54:57;;;;;;;12.43;5.25;;;;;;;;;;5052219;28;20090;-77
2022/03/11 06:57:26;;;;;;;10.85;4.68;;;;;;;;;;5055527;28;20132;-78
2022/03/11 06:59:54;;;;;;;14.68;5.07;;;;;;;;;;5066180;28;20049;-78
2022/03/11 07:02:40;;;;;;;14.50;5.22;;;;;;;;;;5062097;28;20110;-77
2022/03/11 07:05:09;;;;;;;13.80;5.72;;;;;;;;;;5056155;28;20370;-77
2022/03/11 07:07:57;;;;;;;21.92;5.38;;;;;;;;;;5064568;28;20510;-77
2022/03/11 07:10:25;;;;;;;9.63;4.72;;;;;;;;;;5050927;28;20186;-77
2022/03/11 07:12:53;;;;;;;14.38;5.25;;;;;;;;;;5056284;28;20083;-77
2022/03/11 07:15:22;;;;;;;17.90;5.32;;;;;;;;;;5059014;28;20045;-77
2022/03/11 07:17:51;;;;;;;12.27;4.85;;;;;;;;;;5063162;28;20049;-77
2022/03/11 07:20:19;;;;;;;11.82;5.25;;;;;;;;;;5056319;28;20094;-77
2022/03/11 07:23:07;;;;;;;16.58;5.50;;;;;;;;;;5068378;28;20058;-77
2022/03/11 07:25:36;;;;;;;10.88;5.22;;;;;;;;;;5055497;28;20617;-77
2022/03/11 07:28:04;;;;;;;17.90;4.93;;;;;;;;;;5065677;28;20080;-77
2022/03/11 07:30:50;;;;;;;12.23;5.80;;;;;;;;;;5066382;28;20051;-77
2022/03/11 07:33:19;;;;;;;18.27;5.95;;;;;;;;;;5061490;28;20137;-77
2022/03/11 07:35:47;;;;;;;12.55;4.95;;;;;;;;;;5053438;28;20092;-77
2022/03/11 07:38:34;;;;;;;15.85;5.40;;;;;;;;;;5059968;28;20197;-75
2022/03/11 07:41:07;;;;;;;17.45;6.25;;;;;;;;;;5061598;28;20063;-77
2022/03/11 07:43:52;;;;;;;11.05;5.90;;;;;;;;;;5055042;28;20138;-77
2022/03/11 07:46:38;;;;;;;13.63;4.93;;;;;;;;;;5058827;28;20055;-77
2022/03/11 07:49:07;;;;;;;17.83;6.18;;;;;;;;;;5059858;28;20040;-78
2022/03/11 07:51:35;;;;;;;13.25;5.07;;;;;;;;;;5073203;28;20060;-77
2022/03/11 07:54:05;;;;;;;14.15;5.57;;;;;;;;;;5060724;28;20131;-77
2022/03/11 07:56:33;;;;;;;15.35;6.10;;;;;;;;;;5060481;28;20131;-77
2022/03/11 07:59:19;;;;;;;13.43;5.20;;;;;;;;;;5056114;28;20067;-77
2022/03/11 08:01:48;;;;;;;13.10;6.15;;;;;;;;;;5051919;28;20060;-77
2022/03/11 08:04:17;;;;;;;12.95;6.00;;;;;;;;;;5067155;28;20404;-77
2022/03/11 08:07:06;;;;;;;19.40;6.18;;;;;;;;;;5057317;28;20052;-78
2022/03/11 08:09:54;;;;;;;16.40;5.95;;;;;;;;;;5063098;28;20056;-78
2022/03/11 08:12:23;;;;;;;14.27;6.20;;;;;;;;;;5057488;28;20093;-78
2022/03/11 08:15:11;;;;;;;11.05;5.10;;;;;;;;;;5062568;28;20055;-78
2022/03/11 08:17:41;;;;;;;14.70;5.95;;;;;;;;;;5061902;28;20059;-78
2022/03/11 08:20:10;;;;;;;11.23;4.95;;;;;;;;;;5058780;28;20041;-77
2022/03/11 08:22:39;;;;;;;14.55;5.47;;;;;;;;;;5059171;28;20059;-77
2022/03/11 08:25:09;;;;;;;14.70;6.32;;;;;;;;;;5055034;28;20076;-77
2022/03/11 08:27:38;;;;;;;11.90;5.50;;;;;;;;;;5062217;28;20069;-79
2022/03/11 08:30:25;;;;;;;13.43;5.47;;;;;;;;;;5057301;28;20060;-78
2022/03/11 08:32:55;;;;;;;11.30;5.03;;;;;;;;;;5068233;28;20454;-77
2022/03/11 08:35:41;;;;;;;17.05;5.78;;;;;;;;;;5062548;28;20067;-77
2022/03/11 08:38:30;;;;;;;14.18;5.70;;;;;;;;;;5059917;28;20128;-77
2022/03/11 08:41:00;;;;;;;18.08;5.30;;;;;;;;;;5055256;28;20060;-77
2022/03/11 08:43:29;;;;;;;13.48;5.53;;;;;;;;;;5059024;28;20110;-79
2022/03/11 08:45:57;;;;;;;11.63;5.47;;;;;;;;;;5066931;28;20518;-78
2022/03/11 08:48:43;;;;;;;12.20;5.50;;;;;;;;;;5063912;28;20048;-78
2022/03/11 08:51:12;;;;;;;19.33;6.40;;;;;;;;;;5070872;28;20055;-78
2022/03/11 08:53:41;;;;;;;12.00;6.10;;;;;;;;;;5054344;28;20131;-78
2022/03/11 08:56:11;;;;;;;14.82;6.35;;;;;;;;;;5058763;28;20094;-79
2022/03/11 08:58:57;;;;;;;12.73;5.63;;;;;;;;;;5068178;28;20125;-79
2022/03/11 09:01:43;;;;;;;16.60;5.97;;;;;;;;;;5066226;28;20407;-78
2022/03/11 09:04:11;;;;;;;18.95;6.85;;;;;;;;;;5062036;28;20101;-77
2022/03/11 09:06:40;;;;;;;14.32;6.00;;;;;;;;;;5058896;28;20076;-77
2022/03/11 09:09:09;;;;;;;16.88;5.63;;;;;;;;;;5063695;28;20061;-77
2022/03/11 09:11:39;;;;;;;11.23;5.63;;;;;;;;;;5061121;28;20062;-77
2022/03/11 09:14:08;;;;;;;11.98;5.40;;;;;;;;;;5056740;28;20072;-77
2022/03/11 09:16:36;;;;;;;13.02;5.00;;;;;;;;;;5059538;28;20584;-77
2022/03/11 09:19:05;;;;;;;13.15;5.50;;;;;;;;;;5066905;28;20056;-78
2022/03/11 09:21:38;;;;;;;11.70;6.20;;;;;;;;;;5079521;28;20053;-78
2022/03/11 09:24:07;;;;;;;11.52;5.15;;;;;;;;;;5071399;28;20125;-78
2022/03/11 09:26:36;;;;;;;14.23;6.25;;;;;;;;;;5058596;28;20472;-78
2022/03/11 09:29:23;;;;;;;;;;;;;;;;;;5054138;28;20419;-78
2022/03/11 09:31:53;;;;;;;12.57;5.72;;;;;;;;;;5068957;28;19974;-78
2022/03/11 09:34:22;;;;;;;12.02;6.20;;;;;;;;;;5058579;28;20056;-78
2022/03/11 09:36:52;;;;;;;15.88;6.32;;;;;;;;;;5057903;28;20136;-79
2022/03/11 09:39:20;;;;;;;14.82;7.07;;;;;;;;;;5059729;28;20051;-78
2022/03/11 09:41:49;;;;;;;14.38;6.72;;;;;;;;;;5056800;28;20040;-78
2022/03/11 09:44:18;;;;;;;14.68;5.88;;;;;;;;;;5058454;28;20129;-79
2022/03/11 09:46:47;;;;;;;12.70;6.18;;;;;;;;;;5054586;28;20563;-78
2022/03/11 09:49:18;;;;;;;15.02;6.55;;;;;;;;;;5067246;28;20145;-78
2022/03/11 09:51:47;;;;;;;14.15;6.32;;;;;;;;;;5057986;28;20098;-79
2022/03/11 09:54:16;;;;;;;11.98;6.25;;;;;;;;;;5062906;28;20043;-79
2022/03/11 09:56:50;;;;;;;13.75;6.00;;;;;;;;;;5063036;28;20132;-78
2022/03/11 09:59:19;;;;;;;13.23;5.40;;;;;;;;;;5066674;28;20220;-78
2022/03/11 10:01:47;;;;;;;18.10;7.25;;;;;;;;;;5059835;28;20044;-78
2022/03/11 10:04:18;;;;;;;14.73;6.80;;;;;;;;;;5054836;28;20053;-79
2022/03/11 10:06:47;;;;;;;18.00;6.65;;;;;;;;;;5068311;28;20048;-79
2022/03/11 10:09:33;;;;;;;10.57;6.13;;;;;;;;;;5065236;28;20048;-79
2022/03/11 10:12:05;;;;;;;13.23;6.28;;;;;;;;;;5059890;28;20045;-78
2022/03/11 10:14:35;;;;;;;14.00;6.68;;;;;;;;;;5053246;28;20079;-79
2022/03/11 10:17:05;;;;;;;15.02;6.38;;;;;;;;;;5061305;28;20048;-79
2022/03/11 10:19:35;;;;;;;13.95;6.07;;;;;;;;;;5064679;28;20048;-78
2022/03/11 10:22:03;;;;;;;17.13;6.45;;;;;;;;;;5057202;28;20538;-79
2022/03/11 10:24:32;;;;;;;13.57;6.13;;;;;;;;;;5064010;28;20052;-79
2022/03/11 10:27:02;;;;;;;13.48;5.85;;;;;;;;;;5062746;28;20122;-78
2022/03/11 10:29:39;;;;;;;12.82;6.43;;;;;;;;;;5061287;28;20063;-80
2022/03/11 10:32:08;;;;;;;12.93;6.25;;;;;;;;;;5067251;28;20422;-79
2022/03/11 10:34:38;;;;;;;12.13;6.38;;;;;;;;;;5060343;28;20058;-79
2022/03/11 10:37:08;;;;;;;14.18;6.80;;;;;;;;;;5059358;28;20055;-79
2022/03/11 10:39:38;;;;;;;13.82;6.57;;;;;;;;;;5058981;28;20048;-79
2022/03/11 10:42:16;;;;;;;14.52;6.55;;;;;;;;;;5058597;28;20601;-78
2022/03/11 10:44:55;;;;;;;14.13;6.07;;;;;;;;;;5061769;28;20052;-79
2022/03/11 10:47:24;;;;;;;15.63;6.95;;;;;;;;;;5070814;28;20048;-79
2022/03/11 10:49:54;;;;;;;13.75;6.82;;;;;;;;;;5056661;28;20036;-79
2022/03/11 10:52:30;;;;;;;18.33;7.22;;;;;;;;;;5060274;28;20044;-79
2022/03/11 10:54:59;;;;;;;15.07;6.65;;;;;;;;;;5054946;28;20053;-79
2022/03/11 10:57:37;;;;;;;13.73;6.22;;;;;;;;;;5052941;28;20055;-79
2022/03/11 11:00:21;;;;;;;13.65;6.53;;;;;;;;;;5066478;28;20109;-79
2022/03/11 11:02:50;;;;;;;15.27;6.70;;;;;;;;;;5059736;28;20041;-79
2022/03/11 11:05:20;;;;;;;12.90;6.63;;;;;;;;;;5065625;28;20045;-79
2022/03/11 11:07:50;;;;;;;16.13;7.57;;;;;;;;;;5060225;28;20059;-79
2022/03/11 11:10:19;;;;;;;13.57;6.55;;;;;;;;;;5053705;28;20068;-79
2022/03/11 11:12:48;;;;;;;14.35;6.60;;;;;;;;;;5055338;28;20451;-79
2022/03/11 11:15:18;;;;;;;15.43;6.75;;;;;;;;;;5055502;28;20041;-79
2022/03/11 11:17:47;;;;;;;12.52;6.95;;;;;;;;;;5068871;28;20072;-79
2022/03/11 11:20:19;;;;;;;13.30;7.13;;;;;;;;;;5059608;28;20048;-79
2022/03/11 11:22:49;;;;;;;11.85;6.65;;;;;;;;;;5066268;28;20048;-78
2022/03/11 11:25:18;;;;;;;12.82;6.53;;;;;;;;;;5060622;28;20098;-78
2022/03/11 11:27:47;;;;;;;11.43;6.10;;;;;;;;;;5071264;28;20052;-78
2022/03/11 11:30:18;;;;;;;16.10;6.85;;;;;;;;;;5062325;28;20041;-78
2022/03/11 11:32:47;;;;;;;15.05;6.80;;;;;;;;;;5058419;28;20049;-78
2022/03/11 11:35:25;;;;;;;15.57;7.05;;;;;;;;;;5059250;28;20108;-78
2022/03/11 11:37:55;;;;;;;12.30;6.57;;;;;;;;;;5056542;28;20049;-78
2022/03/11 11:40:30;;;;;;;13.90;7.10;;;;;;;;;;5051708;28;20178;-78
2022/03/11 11:43:17;;;;;;;14.05;6.78;;;;;;;;;;5060043;28;20064;-78
2022/03/11 11:45:48;;;;;;;13.10;6.40;;;;;;;;;;5055770;28;20052;-78
2022/03/11 11:48:35;;;;;;;16.45;8.25;;;;;;;;;;5067825;28;20059;-78
2022/03/11 11:51:07;;;;;;;13.55;7.05;;;;;;;;;;5060324;28;20532;-77
2022/03/11 11:53:40;;;;;;;14.40;7.40;;;;;;;;;;5058567;28;20064;-78
2022/03/11 11:56:23;;;;;;;17.10;8.00;;;;;;;;;;5055807;28;20178;-78
2022/03/11 11:58:52;;;;;;;14.50;6.72;;;;;;;;;;5052913;28;20080;-78
2022/03/11 12:01:35;;;;;;;13.85;7.32;;;;;;;;;;5060183;28;20388;-78
2022/03/11 12:04:18;;;;;;;19.08;7.97;;;;;;;;;;5055320;28;20049;-77
2022/03/11 12:06:55;;;;;;;15.88;7.60;;;;;;;;;;5054769;28;20052;-79
2022/03/11 12:09:42;;;;;;;16.35;8.15;;;;;;;;;;5061887;28;20049;-78
2022/03/11 12:12:32;;;;;;;15.77;7.93;;;;;;;;;;5059160;28;20048;-78
2022/03/11 12:15:16;;;;;;;17.00;7.53;;;;;;;;;;5059299;28;20491;-78
2022/03/11 12:17:45;;;;;;;15.38;7.38;;;;;;;;;;5060403;28;20119;-78
2022/03/11 12:20:34;;;;;;;18.63;8.48;;;;;;;;;;5060838;28;20545;-80
2022/03/11 12:23:03;;;;;;;15.35;8.18;;;;;;;;;;5059818;28;20091;-77
2022/03/11 12:25:32;;;;;;;14.40;6.80;;;;;;;;;;5068433;28;20052;-78
2022/03/11 12:28:04;;;;;;;13.68;7.90;;;;;;;;;;5060563;28;20456;-78
2022/03/11 12:30:33;;;;;;;14.57;7.72;;;;;;;;;;5061102;28;20045;-78
2022/03/11 12:33:02;;;;;;;15.90;7.10;;;;;;;;;;5059998;28;20160;-79
2022/03/11 12:35:31;;;;;;;15.45;6.65;;;;;;;;;;5066171;28;20052;-78
2022/03/11 12:38:00;;;;;;;14.35;7.75;;;;;;;;;;5060791;28;20041;-78
2022/03/11 12:40:28;;;;;;;13.00;6.82;;;;;;;;;;5065798;28;20755;-78
2022/03/11 12:43:01;;;;;;;17.08;7.35;;;;;;;;;;5058501;28;20068;-78
2022/03/11 12:45:32;;;;;;;16.90;7.97;;;;;;;;;;5055142;28;20075;-78
2022/03/11 12:48:00;;;;;;;13.60;7.40;;;;;;;;;;5056629;28;20128;-78
2022/03/11 12:50:30;;;;;;;13.02;6.95;;;;;;;;;;5066329;28;20209;-78
2022/03/11 12:52:59;;;;;;;12.60;6.75;;;;;;;;;;5067636;28;20051;-77
2022/03/11 12:55:30;;;;;;;18.10;7.85;;;;;;;;;;5057170;28;20045;-78
2022/03/11 12:58:00;;;;;;;15.98;7.35;;;;;;;;;;5068355;28;20040;-79
2022/03/11 13:00:36;;;;;;;13.88;7.93;;;;;;;;;;5065248;28;20063;-77
2022/03/11 13:03:07;;;;;;;17.08;7.63;;;;;;;;;;5060828;28;20127;-78
2022/03/11 13:05:38;;;;;;;14.15;7.38;;;;;;;;;;5064600;28;20522;-78
2022/03/11 13:08:07;;;;;;;15.82;7.57;;;;;;;;;;5058922;28;20048;-78
2022/03/11 13:10:36;;;;;;;15.48;7.60;;;;;;;;;;5065204;28;20053;-78
2022/03/11 13:13:06;;;;;;;16.27;7.53;;;;;;;;;;5058631;28;20071;-78
2022/03/11 13:15:38;;;;;;;22.58;7.90;;;;;;;;;;5057102;28;20049;-77
2022/03/11 13:18:08;;;;;;;17.33;7.75;;;;;;;;;;5067882;28;20537;-77
2022/03/11 13:20:41;;;;;;;16.65;6.43;;;;;;;;;;5070537;28;20052;-77
2022/03/11 13:23:10;;;;;;;14.30;8.02;;;;;;;;;;5058949;28;20059;-77
2022/03/11 13:25:40;;;;;;;16.75;7.30;;;;;;;;;;5064123;28;20052;-78
2022/03/11 13:28:09;;;;;;;14.88;7.68;;;;;;;;;;5067526;28;20052;-78
2022/03/11 13:30:40;;;;;;;15.48;8.00;;;;;;;;;;5064355;28;20052;-78
2022/03/11 13:33:13;;;;;;;16.63;7.47;;;;;;;;;;5057417;28;20056;-78
2022/03/11 13:35:41;;;;;;;14.43;7.72;;;;;;;;;;5057966;28;20151;-78
2022/03/11 13:38:10;;;;;;;14.90;7.57;;;;;;;;;;5058584;28;20041;-77
2022/03/11 13:40:50;;;;;;;16.90;7.38;;;;;;;;;;5070084;28;20405;-79
2022/03/11 13:43:22;;;;;;;16.80;7.60;;;;;;;;;;5056072;28;20059;-79
2022/03/11 13:45:54;;;;;;;14.45;7.63;;;;;;;;;;5066418;28;20378;-79
2022/03/11 13:48:27;;;;;;;14.15;8.02;;;;;;;;;;5061071;28;20120;-80
2022/03/11 13:51:05;;;;;;;15.82;7.60;;;;;;;;;;5062806;28;20099;-79
2022/03/11 13:53:34;;;;;;;18.35;7.72;;;;;;;;;;5070340;28;20052;-79
2022/03/11 13:56:15;;;;;;;12.32;7.32;;;;;;;;;;5076708;28;20048;-79
2022/03/11 13:58:43;;;;;;;15.25;6.95;;;;;;;;;;5058430;28;20045;-79
2022/03/11 14:01:14;;;;;;;15.52;7.60;;;;;;;;;;5067550;28;20113;-79
2022/03/11 14:03:44;;;;;;;21.73;9.05;;;;;;;;;;5059283;28;20118;-79
2022/03/11 14:06:13;;;;;;;12.38;7.25;;;;;;;;;;5070355;28;20059;-78
2022/03/11 14:08:59;;;;;;;15.18;7.57;;;;;;;;;;5066147;28;20084;-78
2022/03/11 14:11:28;;;;;;;14.70;7.10;;;;;;;;;;5068790;28;20044;-79
2022/03/11 14:13:56;;;;;;;14.80;7.38;;;;;;;;;;5053560;28;20047;-79
2022/03/11 14:16:30;;;;;;;14.90;6.80;;;;;;;;;;5055141;28;20108;-78
2022/03/11 14:18:59;;;;;;;14.68;7.32;;;;;;;;;;5058120;28;20499;-78
2022/03/11 14:21:29;;;;;;;17.25;7.30;;;;;;;;;;5080411;28;20509;-78
2022/03/11 14:23:57;;;;;;;13.02;6.72;;;;;;;;;;5059302;28;20104;-79
2022/03/11 14:26:30;;;;;;;13.40;7.57;;;;;;;;;;5065244;28;20059;-78
2022/03/11 14:28:58;;;;;;;12.45;6.88;;;;;;;;;;5068076;28;20058;-78
2022/03/11 14:31:31;;;;;;;15.88;7.28;;;;;;;;;;5062301;28;20119;-78
2022/03/11 14:34:00;;;;;;;14.40;7.65;;;;;;;;;;5061009;28;20041;-79
2022/03/11 14:36:28;;;;;;;14.63;7.00;;;;;;;;;;5068261;28;20471;-78
2022/03/11 14:38:57;;;;;;;12.93;6.82;;;;;;;;;;5063937;28;20049;-78
2022/03/11 14:41:30;;;;;;;16.65;7.38;;;;;;;;;;5059886;28;20132;-78
2022/03/11 14:43:58;;;;;;;12.90;6.93;;;;;;;;;;5063501;28;20080;-79
2022/03/11 14:46:27;;;;;;;15.05;7.30;;;;;;;;;;5068597;28;20404;-78
2022/03/11 14:48:57;;;;;;;16.02;7.47;;;;;;;;;;5061415;28;20041;-78
2022/03/11 14:51:28;;;;;;;13.43;6.88;;;;;;;;;;5063562;28;20291;-78
2022/03/11 14:53:57;;;;;;;15.77;7.07;;;;;;;;;;5062377;28;20052;-78
2022/03/11 14:56:27;;;;;;;15.65;6.80;;;;;;;;;;5064959;28;20059;-78